This is the latest recevied weather packets stored in our database for station/object N1OTX. If no packets are shown the sender has not sent any weather packets the latest 10 day(s).
| Time | Temp. | Humidity | Pressure | Rain* | Wind** | Luminosity | Snow |
|---|---|---|---|---|---|---|---|
| 1778119227 | 15° C | 96% | 1005.8 hPa | 0 mm | - | 0 W/m² | - |
| 1778118629 | 15° C | 96% | 1005.9 hPa | 0 mm | - | 0 W/m² | - |
| 1778115047 | 14.44° C | 95% | 1006.1 hPa | 0 mm | - | 0 W/m² | - |
| 1778113528 | 14.44° C | 96% | 1006.2 hPa | 0.25 mm | - | 0 W/m² | - |
| 1778113228 | 14.44° C | 95% | 1006.2 hPa | 0.25 mm | - | 0 W/m² | - |
| 1778112028 | 15° C | 95% | 1005.7 hPa | 0.51 mm | - | 1 W/m² | - |
| 1778110827 | 15° C | 95% | 1005.9 hPa | 0.51 mm | - | 3 W/m² | - |
| 1778109927 | 15° C | 94% | 1005.8 hPa | 0.51 mm | - | 4 W/m² | - |
| 1778107227 | 15.56° C | 94% | 1005.9 hPa | 0.51 mm | - | 7 W/m² | - |
| 1778106327 | 15.56° C | 94% | 1006.1 hPa | 0.51 mm | - | 21 W/m² | - |
| 1778104828 | 15.56° C | 92% | 1006.2 hPa | 0.25 mm | - | 17 W/m² | - |
| 1778103928 | 16.11° C | 89% | 1006.6 hPa | 0 mm | - | 40 W/m² | - |
| 1778099728 | 16.67° C | 86% | 1007 hPa | 0.51 mm | - | 44 W/m² | - |
| 1778098228 | 16.67° C | 85% | 1006.7 hPa | 1.02 mm | - | 37 W/m² | - |
| 1778097928 | 17.22° C | 85% | 1006.8 hPa | 1.02 mm | - | 46 W/m² | - |
| 1778097628 | 17.22° C | 85% | 1006.7 hPa | 1.02 mm | - | 89 W/m² | - |
| 1778096727 | 17.78° C | 83% | 1006.9 hPa | 0.76 mm | - | 101 W/m² | - |
| 1778096447 | 17.78° C | 82% | 1007.1 hPa | 0.51 mm | - | 104 W/m² | - |
| 1778095228 | 18.89° C | 73% | 1007 hPa | 0.25 mm | - | 100 W/m² | - |
| 1778093429 | 20.56° C | 62% | 1007.1 hPa | 0 mm | - | 84 W/m² | - |
| 1778091328 | 22.22° C | 54% | 1007.1 hPa | 0 mm | - | 73 W/m² | - |
| 1778088349 | 22.22° C | 56% | 1007.5 hPa | 0 mm | - | 272 W/m² | - |
| 1778083528 | 22.22° C | 57% | 1008.5 hPa | 0 mm | - | 286 W/m² | - |
| 1778082628 | 22.22° C | 55% | 1008.8 hPa | 0 mm | - | 236 W/m² | - |
| 1778082048 | 22.22° C | 56% | 1008.8 hPa | 0 mm | - | 260 W/m² | - |
* Rain latest hour (hover to see other rain measurements)
** Current wind speed in m/s (hover to see current wind gust speed)